createdAt,value
2019-04-05T00:01:12.561Z,11.90
2019-04-05T00:03:42.100Z,10.87
2019-04-05T00:06:11.804Z,12.40
2019-04-05T00:08:41.731Z,11.27
2019-04-05T00:11:11.494Z,11.60
2019-04-05T00:13:41.176Z,11.63
2019-04-05T00:16:11.514Z,11.83
2019-04-05T00:18:41.160Z,11.67
2019-04-05T00:21:10.809Z,11.70
2019-04-05T00:23:40.743Z,11.40
2019-04-05T00:26:10.496Z,11.27
2019-04-05T00:28:40.412Z,12.27
2019-04-05T00:31:10.286Z,11.30
2019-04-05T00:33:39.992Z,11.87
2019-04-05T00:36:09.678Z,11.50
2019-04-05T00:38:39.675Z,11.57
2019-04-05T00:41:09.290Z,11.90
2019-04-05T00:43:39.264Z,11.33
2019-04-05T00:46:09.187Z,11.30
2019-04-05T00:48:38.814Z,10.70
2019-04-05T00:51:08.595Z,12.00
2019-04-05T00:53:39.595Z,11.23
2019-04-05T00:56:09.599Z,11.60
2019-04-05T00:58:39.461Z,11.77
2019-04-05T01:01:09.279Z,10.97
2019-04-05T01:03:38.937Z,11.97
2019-04-05T01:06:08.851Z,11.93
2019-04-05T01:08:38.773Z,12.07
2019-04-05T01:11:08.748Z,11.87
2019-04-05T01:13:39.723Z,11.20
2019-04-05T01:16:09.299Z,11.27
2019-04-05T01:18:38.956Z,11.57
2019-04-05T01:21:12.038Z,11.93
2019-04-05T01:23:42.715Z,12.00
2019-04-05T01:26:14.291Z,11.83
2019-04-05T01:28:44.445Z,11.80
2019-04-05T01:31:14.070Z,11.50
2019-04-05T01:33:44.011Z,11.93
2019-04-05T01:36:13.837Z,11.80
2019-04-05T01:38:43.595Z,11.83
2019-04-05T01:41:13.370Z,11.50
2019-04-05T01:43:43.194Z,12.07
2019-04-05T01:46:13.164Z,11.27
2019-04-05T01:48:43.165Z,11.50
2019-04-05T01:51:13.080Z,11.73
2019-04-05T01:53:43.029Z,11.03
2019-04-05T01:56:13.077Z,11.43
2019-04-05T01:58:43.068Z,11.30
2019-04-05T02:01:12.953Z,12.20
2019-04-05T02:03:42.663Z,12.13
2019-04-05T02:06:13.248Z,12.07
2019-04-05T02:08:43.222Z,11.80
2019-04-05T02:11:12.955Z,12.30
2019-04-05T02:13:42.862Z,10.97
2019-04-05T02:16:12.922Z,11.40
2019-04-05T02:18:42.660Z,12.30
2019-04-05T02:21:12.434Z,11.80
2019-04-05T02:23:42.233Z,11.60
2019-04-05T02:26:12.256Z,12.10
2019-04-05T02:28:41.973Z,11.73
2019-04-05T02:31:11.831Z,12.00
2019-04-05T02:33:41.550Z,12.03
2019-04-05T02:36:11.719Z,11.93
2019-04-05T02:38:41.461Z,11.83
2019-04-05T02:41:11.749Z,11.77
2019-04-05T02:43:43.922Z,11.53
2019-04-05T02:46:24.028Z,11.43
2019-04-05T02:48:49.702Z,12.37
2019-04-05T02:51:22.717Z,12.03
2019-04-05T02:53:54.932Z,12.20
2019-04-05T02:56:26.378Z,12.80
2019-04-05T02:58:57.819Z,11.80
2019-04-05T03:01:28.643Z,12.27
2019-04-05T03:04:00.031Z,12.00
2019-04-05T03:06:30.215Z,11.47
2019-04-05T03:09:01.252Z,11.53
2019-04-05T03:11:34.171Z,12.00
2019-04-05T03:14:04.729Z,12.03
2019-04-05T03:16:41.660Z,12.50
2019-04-05T03:19:19.439Z,12.40
2019-04-05T03:21:54.390Z,12.17
2019-04-05T03:24:28.047Z,12.80
2019-04-05T03:27:03.216Z,11.63
2019-04-05T03:29:33.888Z,12.33
2019-04-05T03:32:04.377Z,11.43
2019-04-05T03:34:34.669Z,12.13
2019-04-05T03:37:05.280Z,12.03
2019-04-05T03:39:35.393Z,11.83
2019-04-05T03:42:05.437Z,12.13
2019-04-05T03:44:36.666Z,12.53
2019-04-05T03:47:06.912Z,11.90
2019-04-05T03:49:36.898Z,11.93
2019-04-05T03:52:08.274Z,12.70
2019-04-05T03:54:38.495Z,11.43
2019-04-05T03:57:08.631Z,11.77
2019-04-05T03:59:39.020Z,12.47
2019-04-05T04:02:09.588Z,12.40
2019-04-05T04:04:39.921Z,12.50
2019-04-05T04:07:10.153Z,12.47
2019-04-05T04:09:40.402Z,11.67
2019-04-05T04:12:12.264Z,13.97
2019-04-05T04:14:42.243Z,15.00
2019-04-05T04:17:13.717Z,12.10
2019-04-05T04:19:45.207Z,12.97
2019-04-05T04:22:27.342Z,12.37
2019-04-05T04:24:59.525Z,12.20
2019-04-05T04:27:30.615Z,11.90
2019-04-05T04:30:00.914Z,12.67
2019-04-05T04:32:31.317Z,12.10
2019-04-05T04:35:02.451Z,12.80
2019-04-05T04:37:32.168Z,12.83
2019-04-05T04:40:02.081Z,13.03
2019-04-05T04:42:32.532Z,12.20
2019-04-05T04:45:11.838Z,12.33
2019-04-05T04:47:34.923Z,12.47
2019-04-05T04:50:06.347Z,11.90
2019-04-05T04:52:36.475Z,13.00
2019-04-05T04:55:06.595Z,13.80
2019-04-05T04:57:37.270Z,14.67
2019-04-05T05:00:08.289Z,12.83
2019-04-05T05:02:38.711Z,13.47
2019-04-05T05:05:09.653Z,13.50
2019-04-05T05:07:40.361Z,12.07
2019-04-05T05:10:11.118Z,12.33
2019-04-05T05:12:41.280Z,12.90
2019-04-05T05:15:12.654Z,11.90
2019-04-05T05:17:43.288Z,12.77
2019-04-05T05:20:14.509Z,12.53
2019-04-05T05:22:44.877Z,12.80
2019-04-05T05:25:16.296Z,12.87
2019-04-05T05:27:46.719Z,12.13
2019-04-05T05:30:16.499Z,12.80
2019-04-05T05:32:46.603Z,12.97
2019-04-05T05:35:16.651Z,12.87
2019-04-05T05:37:47.609Z,12.47
2019-04-05T05:40:18.507Z,15.30
2019-04-05T05:42:48.522Z,14.07
2019-04-05T05:45:18.989Z,12.23
2019-04-05T05:47:52.101Z,12.30
2019-04-05T05:50:21.421Z,12.73
2019-04-05T05:52:51.958Z,14.13
2019-04-05T05:55:22.063Z,12.30
2019-04-05T05:57:54.877Z,14.10
2019-04-05T06:00:25.198Z,13.80
2019-04-05T06:02:55.525Z,14.47
2019-04-05T06:05:25.622Z,12.73
2019-04-05T06:07:55.739Z,13.27
2019-04-05T06:10:25.854Z,13.53
2019-04-05T06:12:58.631Z,13.23
2019-04-05T06:15:28.026Z,12.87
2019-04-05T06:20:30.537Z,12.97
2019-04-05T06:23:00.728Z,12.37
2019-04-05T06:25:30.666Z,11.63
2019-04-05T06:28:00.426Z,12.83
2019-04-05T06:30:30.449Z,12.47
2019-04-05T06:33:00.538Z,11.83
2019-04-05T06:35:30.076Z,13.20
2019-04-05T06:35:39.483Z,12.73
2019-04-05T06:38:00.034Z,12.33
2019-04-05T06:40:40.060Z,12.47
2019-04-05T06:43:01.195Z,11.97
2019-04-05T06:45:30.766Z,12.17
2019-04-05T06:48:00.488Z,12.23
2019-04-05T06:50:30.290Z,11.77
2019-04-05T06:52:59.940Z,12.17
2019-04-05T06:55:29.827Z,12.37
2019-04-05T06:57:59.896Z,11.60
2019-04-05T07:00:30.745Z,12.80
2019-04-05T07:03:01.329Z,12.70
2019-04-05T07:05:31.368Z,12.50
2019-04-05T07:08:01.684Z,12.07
2019-04-05T07:10:32.298Z,12.40
2019-04-05T07:13:02.479Z,12.63
2019-04-05T07:15:32.257Z,11.47
2019-04-05T07:18:02.543Z,12.17
2019-04-05T07:20:32.307Z,12.03
2019-04-05T07:23:01.889Z,11.83
2019-04-05T07:25:32.030Z,11.77
2019-04-05T07:28:02.018Z,11.47
2019-04-05T07:30:32.708Z,11.90
2019-04-05T07:33:02.742Z,12.40
2019-04-05T07:35:33.738Z,11.90
2019-04-05T07:38:03.819Z,10.90
2019-04-05T07:40:33.501Z,11.77
2019-04-05T07:43:03.376Z,11.93
2019-04-05T07:45:33.481Z,11.60
2019-04-05T07:48:03.354Z,11.67
2019-04-05T07:50:33.223Z,11.40
2019-04-05T07:53:04.105Z,11.93
2019-04-05T07:55:34.206Z,11.97
2019-04-05T07:58:04.115Z,11.07
2019-04-05T08:00:54.702Z,10.80
2019-04-05T08:03:25.695Z,10.90
2019-04-05T08:05:56.278Z,11.37
2019-04-05T08:08:48.118Z,10.97
2019-04-05T08:11:18.952Z,10.90
2019-04-05T08:13:50.161Z,11.20
2019-04-05T08:16:20.834Z,11.10
2019-04-05T08:18:57.529Z,10.73
2019-04-05T08:21:23.195Z,11.20
2019-04-05T08:23:53.155Z,10.77
2019-04-05T08:26:22.941Z,11.03
2019-04-05T08:28:53.253Z,11.20
2019-04-05T08:31:23.137Z,10.70
2019-04-05T08:33:53.437Z,10.83
2019-04-05T08:36:23.702Z,10.83
2019-04-05T08:38:53.727Z,10.47
2019-04-05T08:41:23.542Z,10.27
2019-04-05T08:43:53.506Z,11.03
2019-04-05T08:46:23.387Z,10.37
2019-04-05T08:48:53.565Z,11.00
2019-04-05T08:51:23.718Z,10.67
2019-04-05T08:53:53.639Z,10.77
2019-04-05T08:56:23.331Z,11.13
2019-04-05T08:58:53.612Z,10.77
2019-04-05T09:01:23.467Z,11.33
2019-04-05T09:03:53.478Z,10.57
2019-04-05T09:06:23.766Z,10.50
2019-04-05T09:08:53.943Z,9.93
2019-04-05T09:11:23.675Z,10.73
2019-04-05T09:13:53.680Z,10.50
2019-04-05T09:16:23.326Z,10.60
2019-04-05T09:18:53.394Z,10.33
2019-04-05T09:21:23.265Z,10.77
2019-04-05T09:23:53.232Z,10.40
2019-04-05T09:26:23.295Z,10.00
2019-04-05T09:28:53.100Z,10.67
2019-04-05T09:31:22.896Z,9.77
2019-04-05T09:33:52.976Z,9.27
2019-04-05T09:36:22.920Z,8.57
2019-04-05T09:38:52.871Z,9.43
2019-04-05T09:41:22.574Z,9.10
2019-04-05T09:43:52.244Z,8.23
2019-04-05T09:46:21.816Z,9.37
2019-04-05T09:48:51.631Z,8.83
2019-04-05T09:51:21.899Z,6.70
2019-04-05T09:53:51.727Z,8.27
2019-04-05T09:56:21.722Z,8.50
2019-04-05T09:58:51.433Z,8.37
2019-04-05T10:01:21.441Z,9.03
2019-04-05T10:03:51.407Z,8.33
2019-04-05T10:06:21.570Z,8.67
2019-04-05T10:08:51.124Z,9.43
2019-04-05T10:11:21.021Z,8.33
2019-04-05T10:13:51.078Z,7.50
2019-04-05T10:16:22.124Z,8.50
2019-04-05T10:18:52.082Z,8.43
2019-04-05T10:21:21.993Z,8.43
2019-04-05T10:23:51.655Z,8.23
2019-04-05T10:26:21.251Z,9.03
2019-04-05T10:28:51.247Z,8.60
2019-04-05T10:31:20.807Z,8.90
2019-04-05T10:33:50.493Z,8.53
2019-04-05T10:36:20.629Z,9.10
2019-04-05T10:38:50.589Z,8.77
2019-04-05T10:41:22.926Z,8.53
2019-04-05T10:43:51.809Z,9.27
2019-04-05T10:46:21.505Z,8.60
2019-04-05T10:48:51.265Z,10.17
2019-04-05T10:51:21.343Z,8.63
2019-04-05T10:53:51.291Z,8.67
2019-04-05T10:56:21.282Z,9.00
2019-04-05T10:58:51.121Z,8.57
2019-04-05T11:01:20.805Z,9.23
2019-04-05T11:03:50.945Z,8.33
2019-04-05T11:06:20.890Z,8.63
2019-04-05T11:08:50.969Z,9.23
2019-04-05T11:11:20.998Z,8.70
2019-04-05T11:13:50.841Z,8.40
2019-04-05T11:16:20.616Z,8.53
2019-04-05T11:18:50.227Z,8.77
2019-04-05T11:21:20.070Z,8.70
2019-04-05T11:23:49.687Z,9.13
2019-04-05T11:26:19.948Z,8.50
2019-04-05T11:28:49.905Z,8.63
2019-04-05T11:31:19.534Z,8.97
2019-04-05T11:33:49.331Z,8.50
2019-04-05T11:36:20.299Z,9.17
2019-04-05T11:38:51.029Z,8.20
2019-04-05T11:41:22.972Z,8.63
2019-04-05T11:43:55.454Z,9.43
2019-04-05T11:46:26.237Z,8.77
2019-04-05T11:48:57.124Z,8.17
2019-04-05T11:51:27.429Z,8.37
2019-04-05T11:53:57.415Z,8.37
2019-04-05T11:56:27.627Z,8.37
2019-04-05T11:58:57.705Z,8.90
2019-04-05T12:01:32.869Z,9.40
2019-04-05T12:04:02.741Z,8.03
2019-04-05T12:06:35.054Z,15.70
2019-04-05T12:09:06.906Z,9.43
2019-04-05T12:11:37.285Z,8.57
2019-04-05T12:14:06.891Z,7.83
2019-04-05T12:16:36.751Z,8.50
2019-04-05T12:19:06.747Z,8.37
2019-04-05T12:21:36.344Z,9.63
2019-04-05T12:24:06.185Z,8.10
2019-04-05T12:26:36.199Z,8.77
2019-04-05T12:29:06.007Z,8.73
2019-04-05T12:31:35.875Z,8.43
2019-04-05T12:34:05.498Z,8.43
2019-04-05T12:36:35.320Z,8.53
2019-04-05T12:39:08.239Z,8.57
2019-04-05T12:41:40.986Z,9.07
2019-04-05T12:44:14.310Z,7.40
2019-04-05T12:46:43.473Z,8.37
2019-04-05T12:49:15.317Z,8.30
2019-04-05T12:51:45.591Z,8.00
2019-04-05T12:54:16.224Z,8.33
2019-04-05T12:56:46.048Z,8.60
2019-04-05T12:59:15.810Z,8.87
2019-04-05T13:01:46.564Z,8.43
2019-04-05T13:04:16.531Z,8.20
2019-04-05T13:06:46.486Z,7.90
2019-04-05T13:09:17.038Z,8.20
2019-04-05T13:11:46.996Z,8.07
2019-04-05T13:14:16.714Z,8.20
2019-04-05T13:16:49.423Z,8.10
2019-04-05T13:19:18.363Z,8.37
2019-04-05T13:21:48.204Z,8.30
2019-04-05T13:24:17.916Z,8.67
2019-04-05T13:26:48.078Z,7.37
2019-04-05T13:29:19.659Z,9.83
2019-04-05T13:31:49.477Z,8.73
2019-04-05T13:34:19.640Z,8.20
2019-04-05T13:36:49.344Z,8.30
2019-04-05T13:39:19.154Z,8.23
2019-04-05T13:41:49.368Z,8.27
2019-04-05T13:44:19.133Z,8.23
2019-04-05T13:46:48.708Z,8.30
2019-04-05T13:49:18.707Z,8.83
2019-04-05T13:51:48.354Z,8.23
2019-04-05T13:54:18.007Z,8.00
2019-04-05T13:56:47.987Z,8.23
2019-04-05T13:59:17.845Z,8.00
2019-04-05T14:01:50.920Z,8.40
2019-04-05T14:04:20.999Z,8.30
2019-04-05T14:06:53.397Z,9.13
2019-04-05T14:09:22.829Z,8.27
2019-04-05T14:11:52.873Z,8.47
2019-04-05T14:14:22.520Z,8.23
2019-04-05T14:16:54.191Z,8.87
2019-04-05T14:19:23.953Z,8.73
2019-04-05T14:21:53.847Z,7.87
2019-04-05T14:24:24.318Z,8.60
2019-04-05T14:26:54.458Z,9.00
2019-04-05T14:29:24.477Z,7.73
2019-04-05T14:31:54.345Z,7.73
2019-04-05T14:34:24.886Z,8.53
2019-04-05T14:36:54.468Z,8.60
2019-04-05T14:39:24.746Z,8.43
2019-04-05T14:41:55.016Z,7.93
2019-04-05T14:44:24.872Z,8.90
2019-04-05T14:46:55.860Z,9.97
2019-04-05T14:49:30.303Z,8.93
2019-04-05T14:52:00.737Z,9.30
2019-04-05T14:54:30.853Z,9.40
2019-04-05T14:57:05.446Z,8.97
2019-04-05T14:59:32.885Z,8.87
2019-04-05T15:02:02.671Z,7.10
2019-04-05T15:04:32.342Z,9.03
2019-04-05T15:07:02.108Z,9.30
2019-04-05T15:09:31.883Z,9.43
2019-04-05T15:12:01.904Z,8.77
2019-04-05T15:14:31.749Z,8.73
2019-04-05T15:17:01.625Z,8.77
2019-04-05T15:19:31.411Z,8.40
2019-04-05T15:22:05.984Z,8.83
2019-04-05T15:24:32.812Z,9.37
2019-04-05T15:27:02.962Z,8.60
2019-04-05T15:29:32.592Z,8.33
2019-04-05T15:32:02.885Z,8.43
2019-04-05T15:34:33.018Z,8.40
2019-04-05T15:37:02.699Z,9.23
2019-04-05T15:39:32.379Z,8.60
2019-04-05T15:42:02.675Z,9.07
2019-04-05T15:44:32.975Z,8.93
2019-04-05T15:47:02.622Z,8.83
2019-04-05T15:49:32.490Z,9.10
2019-04-05T15:52:02.227Z,9.07
2019-04-05T15:54:33.350Z,9.43
2019-04-05T15:57:04.431Z,8.67
2019-04-05T15:59:34.177Z,9.37
2019-04-05T16:02:04.430Z,10.60
2019-04-05T16:04:34.798Z,9.47
2019-04-05T16:07:04.792Z,8.97
2019-04-05T16:09:34.539Z,9.17
2019-04-05T16:12:05.172Z,8.70
2019-04-05T16:14:34.864Z,8.90
2019-04-05T16:17:04.695Z,9.40
2019-04-05T16:19:36.049Z,8.63
2019-04-05T16:22:05.808Z,8.43
2019-04-05T16:24:35.779Z,9.33
2019-04-05T16:27:05.938Z,8.90
2019-04-05T16:29:35.635Z,9.80
2019-04-05T16:32:06.862Z,9.47
2019-04-05T16:34:37.010Z,9.20
2019-04-05T16:37:07.193Z,8.53
2019-04-05T16:39:36.888Z,10.50
2019-04-05T16:42:10.102Z,9.47
2019-04-05T16:44:38.591Z,10.63
2019-04-05T16:47:08.733Z,9.30
2019-04-05T16:49:38.543Z,9.20
2019-04-05T16:52:08.059Z,9.63
2019-04-05T16:54:38.101Z,9.80
2019-04-05T16:57:08.124Z,9.13
2019-04-05T16:59:37.910Z,9.00
2019-04-05T17:02:08.223Z,9.13
2019-04-05T17:04:37.952Z,9.57
2019-04-05T17:07:07.734Z,9.30
2019-04-05T17:09:37.757Z,8.70
2019-04-05T17:12:07.706Z,9.50
2019-04-05T17:14:37.511Z,9.07
2019-04-05T17:17:07.406Z,9.17
2019-04-05T17:19:37.495Z,8.93
2019-04-05T17:22:07.210Z,8.87
2019-04-05T17:24:36.769Z,9.40
2019-04-05T17:27:06.774Z,9.53
2019-04-05T17:29:36.417Z,9.97
2019-04-05T17:32:06.346Z,8.37
2019-04-05T17:34:37.369Z,8.77
2019-04-05T17:37:07.450Z,9.10
2019-04-05T17:39:37.492Z,9.17
2019-04-05T17:42:07.746Z,9.43
2019-04-05T17:44:37.951Z,8.60
2019-04-05T17:47:07.672Z,9.63
2019-04-05T17:49:37.684Z,9.53
2019-04-05T17:52:07.722Z,9.67
2019-04-05T17:54:37.478Z,9.43
2019-04-05T17:57:07.597Z,9.60
2019-04-05T17:59:38.594Z,9.37
2019-04-05T18:02:08.625Z,9.73
2019-04-05T18:04:39.251Z,9.60
2019-04-05T18:07:09.495Z,9.33
2019-04-05T18:09:39.143Z,9.97
2019-04-05T18:12:09.061Z,9.93
2019-04-05T18:14:39.136Z,8.93
2019-04-05T18:17:08.741Z,9.90
2019-04-05T18:19:38.657Z,9.77
2019-04-05T18:22:08.714Z,9.67
2019-04-05T18:24:38.472Z,10.27
2019-04-05T18:27:08.336Z,10.70
2019-04-05T18:29:38.299Z,9.73
2019-04-05T18:32:08.169Z,9.43
2019-04-05T18:34:37.726Z,11.50
2019-04-05T18:37:07.638Z,9.33
2019-04-05T18:39:37.481Z,9.83
2019-04-05T18:42:07.333Z,9.77
2019-04-05T18:44:37.385Z,9.60
2019-04-05T18:47:15.550Z,11.03
2019-04-05T18:49:45.755Z,10.87
2019-04-05T18:52:15.473Z,10.10
2019-04-05T18:54:45.279Z,9.80
2019-04-05T18:57:15.499Z,11.40
2019-04-05T18:59:45.353Z,9.50
2019-04-05T19:02:14.923Z,10.07
2019-04-05T19:04:44.839Z,10.03
2019-04-05T19:07:14.539Z,10.53
2019-04-05T19:09:44.561Z,10.90
2019-04-05T19:12:15.035Z,10.77
2019-04-05T19:14:44.916Z,10.30
2019-04-05T19:17:23.758Z,11.17
2019-04-05T19:19:46.670Z,10.27
2019-04-05T19:22:16.231Z,9.73
2019-04-05T19:24:45.882Z,10.00
2019-04-05T19:27:15.646Z,9.57
2019-04-05T19:29:45.439Z,10.00
2019-04-05T19:49:57.380Z,9.27
2019-04-05T19:52:29.982Z,9.23
2019-04-05T19:55:00.278Z,9.03
2019-04-05T19:57:32.352Z,8.77
2019-04-05T20:00:02.549Z,9.40
2019-04-05T20:02:32.359Z,8.93
2019-04-05T20:05:02.382Z,8.37
2019-04-05T20:07:32.576Z,9.13
2019-04-05T20:10:02.485Z,8.97
2019-04-05T20:12:32.124Z,9.70
2019-04-05T20:15:02.160Z,9.17
2019-04-05T20:17:34.041Z,9.13
2019-04-05T20:20:04.922Z,9.43
2019-04-05T20:22:35.127Z,9.10
2019-04-05T20:25:05.789Z,9.00
2019-04-05T20:27:35.778Z,8.73
2019-04-05T20:30:07.009Z,9.00
2019-04-05T20:32:37.185Z,9.70
2019-04-05T20:35:07.337Z,9.73
2019-04-05T20:37:36.885Z,9.33
2019-04-05T20:40:07.830Z,9.97
2019-04-05T20:42:37.762Z,9.50
2019-04-05T20:45:08.015Z,9.63
2019-04-05T20:47:38.226Z,8.17
2019-04-05T20:50:08.731Z,10.23
2019-04-05T20:52:38.390Z,9.07
2019-04-05T20:55:08.975Z,9.43
2019-04-05T20:57:38.710Z,10.20
2019-04-05T21:00:10.547Z,9.63
2019-04-05T21:02:40.459Z,9.50
2019-04-05T21:05:10.315Z,8.40
2019-04-05T21:07:40.361Z,9.43
2019-04-05T21:10:10.469Z,9.53
2019-04-05T21:12:40.276Z,9.30
2019-04-05T21:15:10.633Z,8.87
2019-04-05T21:17:40.384Z,9.10
2019-04-05T21:20:10.593Z,9.57
2019-04-05T21:22:40.486Z,9.73
2019-04-05T21:25:10.451Z,9.97
2019-04-05T21:27:39.956Z,8.90
2019-04-05T21:30:09.989Z,8.83
2019-04-05T21:32:40.041Z,9.57
2019-04-05T21:35:10.034Z,8.80
2019-04-05T21:37:39.688Z,9.00
2019-04-05T21:40:09.958Z,8.57
2019-04-05T21:42:39.754Z,8.30
2019-04-05T21:45:09.641Z,9.10
2019-04-05T21:47:39.752Z,9.03
2019-04-05T21:50:11.084Z,9.57
2019-04-05T21:52:41.010Z,9.50
2019-04-05T21:55:11.081Z,9.27
2019-04-05T21:57:41.025Z,9.20
2019-04-05T22:00:17.653Z,9.43
2019-04-05T22:02:47.427Z,9.37
2019-04-05T22:05:17.579Z,9.30
2019-04-05T22:07:47.666Z,9.73
2019-04-05T22:10:17.492Z,9.10
2019-04-05T22:12:47.328Z,9.83
2019-04-05T22:15:17.296Z,10.13
2019-04-05T22:17:46.892Z,10.43
2019-04-05T22:20:16.690Z,10.37
2019-04-05T22:22:46.810Z,10.53
2019-04-05T22:25:16.498Z,10.37
2019-04-05T22:27:46.193Z,10.73
2019-04-05T22:30:16.077Z,11.13
2019-04-05T22:32:45.966Z,11.23
2019-04-05T22:35:15.982Z,10.77
2019-04-05T22:37:45.732Z,11.07
2019-04-05T22:40:15.902Z,10.20
2019-04-05T22:42:45.932Z,11.20
2019-04-05T22:45:15.764Z,11.20
2019-04-05T22:47:45.264Z,10.67
2019-04-05T22:50:15.460Z,11.03
2019-04-05T22:52:45.176Z,11.23
2019-04-05T22:55:14.764Z,8.77
2019-04-05T22:57:44.789Z,10.50
2019-04-05T23:00:15.890Z,10.47
2019-04-05T23:02:45.860Z,11.27
2019-04-05T23:05:15.581Z,10.33
2019-04-05T23:07:45.221Z,10.53
2019-04-05T23:10:16.601Z,10.67
2019-04-05T23:12:46.179Z,10.83
2019-04-05T23:15:16.014Z,10.87
2019-04-05T23:17:45.843Z,10.63
2019-04-05T23:20:15.714Z,10.90
2019-04-05T23:22:45.617Z,11.60
2019-04-05T23:25:21.851Z,10.90
2019-04-05T23:27:47.188Z,10.83
2019-04-05T23:30:18.452Z,11.47
2019-04-05T23:32:48.184Z,10.23
2019-04-05T23:35:17.787Z,10.37
2019-04-05T23:37:48.146Z,11.43
2019-04-05T23:40:17.727Z,10.93
2019-04-05T23:42:47.526Z,11.20
2019-04-05T23:45:17.509Z,11.13
2019-04-05T23:47:47.201Z,11.30
2019-04-05T23:50:17.087Z,10.50
2019-04-05T23:52:47.076Z,10.10
2019-04-05T23:55:17.141Z,11.23
2019-04-05T23:57:47.084Z,10.90
